Time,TemperatureF,DewpointF,PressureIn,WindDirection,WindDirectionDegrees,WindSpeedMPH,WindSpeedGustMPH,Humidity,HourlyPrecipIn,Conditions,Clouds,dailyrainin,SolarRadiationWatts/m^2,SoftwareType,DateUTC
2013-03-29 00:00:00,29.2,26.9,30.33,WSW,256,0.0,0.0,91,0.00,,,0.00,0,Wunderground v.1.15,2013-03-29 04:00:00,
2013-03-29 00:01:00,29.2,26.9,30.33,WSW,256,0.0,0.0,91,0.00,,,0.00,0,Wunderground v.1.15,2013-03-29 04:01:00,
2013-03-29 00:06:00,29.2,26.9,30.33,WSW,256,0.0,0.0,91,0.00,,,0.00,0,Wunderground v.1.15,2013-03-29 04:06:00,
2013-03-29 00:12:00,29.1,27.1,30.33,WSW,256,0.0,0.0,92,0.00,,,0.00,0,Wunderground v.1.15,2013-03-29 04:12:00,
2013-03-29 00:13:00,29.0,27.0,30.33,WSW,256,0.0,0.0,92,0.00,,,0.00,0,Wunderground v.1.15,2013-03-29 04:13:00,
2013-03-29 00:19:00,28.9,26.9,30.33,WSW,256,0.0,0.0,92,0.00,,,0.00,0,Wunderground v.1.15,2013-03-29 04:19:00,
2013-03-29 00:24:00,28.9,26.9,30.33,WSW,256,0.0,0.0,92,0.00,,,0.00,0,Wunderground v.1.15,2013-03-29 04:24:00,
2013-03-29 00:29:00,28.7,26.7,30.33,WSW,256,0.0,0.0,92,0.00,,,0.00,0,Wunderground v.1.15,2013-03-29 04:29:00,
2013-03-29 00:35:00,28.2,26.2,30.33,WSW,256,0.0,0.0,92,0.00,,,0.00,0,Wunderground v.1.15,2013-03-29 04:35:00,
2013-03-29 00:41:00,27.9,25.9,30.33,WSW,256,0.0,0.0,92,0.00,,,0.00,0,Wunderground v.1.15,2013-03-29 04:41:00,
2013-03-29 00:46:00,27.9,25.9,30.33,WSW,256,0.0,0.0,92,0.00,,,0.00,0,Wunderground v.1.15,2013-03-29 04:46:00,
2013-03-29 00:51:00,27.8,26.0,30.33,WSW,256,0.0,0.0,93,0.00,,,0.00,0,Wunderground v.1.15,2013-03-29 04:51:00,
2013-03-29 00:57:00,27.6,25.8,30.33,WSW,256,0.0,0.0,93,0.00,,,0.00,0,Wunderground v.1.15,2013-03-29 04:57:00,
2013-03-29 01:03:00,27.9,26.1,30.33,WSW,256,0.0,0.0,93,0.00,,,0.00,0,Wunderground v.1.15,2013-03-29 05:03:00,
2013-03-29 01:08:00,28.0,26.2,30.33,WSW,256,0.0,0.0,93,0.00,,,0.00,0,Wunderground v.1.15,2013-03-29 05:08:00,
2013-03-29 01:14:00,27.9,26.1,30.33,WSW,256,0.0,0.0,93,0.00,,,0.00,0,Wunderground v.1.15,2013-03-29 05:14:00,
2013-03-29 01:19:00,27.8,26.0,30.33,WSW,256,0.0,0.0,93,0.00,,,0.00,0,Wunderground v.1.15,2013-03-29 05:19:00,
2013-03-29 01:25:00,27.9,26.4,30.33,WSW,256,0.0,0.0,94,0.00,,,0.00,0,Wunderground v.1.15,2013-03-29 05:25:00,
2013-03-29 01:30:00,27.6,25.8,30.33,WSW,256,0.0,0.0,93,0.00,,,0.00,0,Wunderground v.1.15,2013-03-29 05:30:00,
2013-03-29 01:37:00,27.3,25.5,30.33,WSW,256,0.0,0.0,93,0.00,,,0.00,0,Wunderground v.1.15,2013-03-29 05:37:00,
2013-03-29 01:43:00,27.1,25.3,30.33,WSW,256,0.0,0.0,93,0.00,,,0.00,0,Wunderground v.1.15,2013-03-29 05:43:00,
2013-03-29 01:48:00,27.0,25.2,30.33,WSW,256,0.0,0.0,93,0.00,,,0.00,0,Wunderground v.1.15,2013-03-29 05:48:00,
2013-03-29 01:54:00,27.0,25.2,30.33,WSW,256,0.0,0.0,93,0.00,,,0.00,0,Wunderground v.1.15,2013-03-29 05:54:00,
2013-03-29 01:59:00,27.0,25.2,30.33,WSW,256,0.0,0.0,93,0.00,,,0.00,0,Wunderground v.1.15,2013-03-29 05:59:00,
2013-03-29 02:04:00,26.9,25.4,30.33,WSW,256,0.0,0.0,94,0.00,,,0.00,0,Wunderground v.1.15,2013-03-29 06:04:00,
2013-03-29 02:09:00,26.8,25.0,30.33,WSW,256,0.0,0.0,93,0.00,,,0.00,0,Wunderground v.1.15,2013-03-29 06:09:00,
2013-03-29 02:14:00,26.8,25.3,30.33,WSW,256,0.0,0.0,94,0.00,,,0.00,0,Wunderground v.1.15,2013-03-29 06:14:00,
2013-03-29 02:19:00,26.6,24.8,30.33,WSW,256,0.0,0.0,93,0.00,,,0.00,0,Wunderground v.1.15,2013-03-29 06:19:00,
2013-03-29 02:24:00,26.5,25.0,30.33,WSW,256,0.0,0.0,94,0.00,,,0.00,0,Wunderground v.1.15,2013-03-29 06:24:00,
2013-03-29 02:29:00,26.4,24.9,30.33,WSW,256,0.0,0.0,94,0.00,,,0.00,0,Wunderground v.1.15,2013-03-29 06:29:00,
2013-03-29 02:34:00,26.3,24.8,30.33,WSW,256,0.0,0.0,94,0.00,,,0.00,0,Wunderground v.1.15,2013-03-29 06:34:00,
2013-03-29 02:39:00,26.3,24.8,30.33,WSW,256,0.0,0.0,94,0.00,,,0.00,0,Wunderground v.1.15,2013-03-29 06:39:00,
2013-03-29 02:44:00,26.3,24.8,30.33,WSW,256,0.0,0.0,94,0.00,,,0.00,0,Wunderground v.1.15,2013-03-29 06:44:00,
2013-03-29 02:49:00,26.3,24.8,30.33,WSW,256,0.0,0.0,94,0.00,,,0.00,0,Wunderground v.1.15,2013-03-29 06:49:00,
2013-03-29 02:54:00,26.3,24.8,30.33,WSW,256,0.0,0.0,94,0.00,,,0.00,0,Wunderground v.1.15,2013-03-29 06:54:00,
2013-03-29 02:59:00,26.3,24.8,30.33,WSW,256,0.0,0.0,94,0.00,,,0.00,0,Wunderground v.1.15,2013-03-29 06:59:00,
2013-03-29 03:04:00,26.3,24.8,30.33,WSW,256,0.0,0.0,94,0.00,,,0.00,0,Wunderground v.1.15,2013-03-29 07:04:00,
2013-03-29 03:09:00,26.2,24.7,30.33,WSW,256,0.0,0.0,94,0.00,,,0.00,0,Wunderground v.1.15,2013-03-29 07:09:00,
2013-03-29 03:14:00,26.3,25.1,30.33,WSW,256,0.0,0.0,95,0.00,,,0.00,0,Wunderground v.1.15,2013-03-29 07:14:00,
2013-03-29 03:19:00,26.3,25.1,30.33,WSW,256,0.0,0.0,95,0.00,,,0.00,0,Wunderground v.1.15,2013-03-29 07:19:00,
2013-03-29 03:24:00,26.2,24.7,30.32,WSW,256,0.0,0.0,94,0.00,,,0.00,0,Wunderground v.1.15,2013-03-29 07:24:00,
2013-03-29 03:29:00,26.1,24.9,30.32,WSW,256,0.0,0.0,95,0.00,,,0.00,0,Wunderground v.1.15,2013-03-29 07:29:00,
2013-03-29 03:34:00,25.9,24.4,30.32,WSW,256,0.0,0.0,94,0.00,,,0.00,0,Wunderground v.1.15,2013-03-29 07:34:00,
2013-03-29 03:40:00,25.9,24.7,30.32,WSW,256,0.0,0.0,95,0.00,,,0.00,0,Wunderground v.1.15,2013-03-29 07:40:00,
2013-03-29 03:45:00,25.9,24.7,30.32,WSW,256,0.0,0.0,95,0.00,,,0.00,0,Wunderground v.1.15,2013-03-29 07:45:00,
2013-03-29 03:50:00,25.8,24.6,30.32,WSW,256,0.0,0.0,95,0.00,,,0.00,0,Wunderground v.1.15,2013-03-29 07:50:00,
2013-03-29 03:55:00,25.9,24.7,30.32,WSW,256,0.0,0.0,95,0.00,,,0.00,0,Wunderground v.1.15,2013-03-29 07:55:00,
2013-03-29 04:00:00,25.7,24.5,30.32,WSW,256,0.0,0.0,95,0.00,,,0.00,0,Wunderground v.1.15,2013-03-29 08:00:00,
2013-03-29 04:05:00,25.6,24.1,30.32,WSW,256,0.0,0.0,94,0.00,,,0.00,0,Wunderground v.1.15,2013-03-29 08:05:00,
2013-03-29 04:10:00,25.3,23.8,30.32,WSW,256,0.0,0.0,94,0.00,,,0.00,0,Wunderground v.1.15,2013-03-29 08:10:00,
2013-03-29 04:15:00,25.2,24.0,30.32,WSW,256,0.0,0.0,95,0.00,,,0.00,0,Wunderground v.1.15,2013-03-29 08:15:00,
2013-03-29 04:20:00,25.0,23.8,30.32,WSW,256,0.0,0.0,95,0.00,,,0.00,0,Wunderground v.1.15,2013-03-29 08:20:00,
2013-03-29 04:25:00,24.8,23.3,30.32,WSW,256,0.0,0.0,94,0.00,,,0.00,0,Wunderground v.1.15,2013-03-29 08:25:00,
2013-03-29 04:30:00,24.9,23.7,30.32,WSW,256,0.0,0.0,95,0.00,,,0.00,0,Wunderground v.1.15,2013-03-29 08:30:00,
2013-03-29 04:35:00,24.9,23.7,30.32,WSW,256,0.0,0.0,95,0.00,,,0.00,0,Wunderground v.1.15,2013-03-29 08:35:00,
2013-03-29 04:40:00,24.9,23.7,30.32,WSW,256,0.0,0.0,95,0.00,,,0.00,0,Wunderground v.1.15,2013-03-29 08:40:00,
2013-03-29 04:45:00,24.8,23.6,30.32,WSW,256,0.0,0.0,95,0.00,,,0.00,0,Wunderground v.1.15,2013-03-29 08:45:00,
2013-03-29 04:50:00,24.7,23.5,30.32,WSW,256,0.0,0.0,95,0.00,,,0.00,0,Wunderground v.1.15,2013-03-29 08:50:00,
2013-03-29 04:55:00,24.7,23.5,30.32,WSW,256,0.0,0.0,95,0.00,,,0.00,0,Wunderground v.1.15,2013-03-29 08:55:00,
2013-03-29 05:00:00,24.6,23.4,30.32,WSW,256,0.0,0.0,95,0.00,,,0.00,0,Wunderground v.1.15,2013-03-29 09:00:00,
2013-03-29 05:05:00,24.7,23.5,30.32,WSW,256,0.0,0.0,95,0.00,,,0.00,0,Wunderground v.1.15,2013-03-29 09:05:00,
2013-03-29 05:10:00,24.3,22.8,30.32,WSW,256,0.0,0.0,94,0.00,,,0.00,0,Wunderground v.1.15,2013-03-29 09:10:00,
2013-03-29 05:15:00,24.0,22.8,30.32,WSW,256,0.0,0.0,95,0.00,,,0.00,0,Wunderground v.1.15,2013-03-29 09:15:00,
2013-03-29 05:20:00,24.0,22.8,30.32,WSW,256,0.0,0.0,95,0.00,,,0.00,0,Wunderground v.1.15,2013-03-29 09:20:00,
2013-03-29 05:25:00,24.2,23.0,30.32,WSW,256,0.0,0.0,95,0.00,,,0.00,0,Wunderground v.1.15,2013-03-29 09:25:00,
2013-03-29 05:30:00,24.5,23.3,30.32,WSW,256,0.0,0.0,95,0.00,,,0.00,0,Wunderground v.1.15,2013-03-29 09:30:00,
2013-03-29 05:35:00,24.6,23.4,30.32,WSW,256,0.0,0.0,95,0.00,,,0.00,0,Wunderground v.1.15,2013-03-29 09:35:00,
2013-03-29 05:40:00,24.7,23.5,30.32,WSW,256,0.0,0.0,95,0.00,,,0.00,0,Wunderground v.1.15,2013-03-29 09:40:00,
2013-03-29 05:45:00,24.8,23.6,30.32,WSW,256,0.0,0.0,95,0.00,,,0.00,0,Wunderground v.1.15,2013-03-29 09:45:00,
2013-03-29 05:50:00,24.8,23.6,30.32,WSW,256,0.0,0.0,95,0.00,,,0.00,0,Wunderground v.1.15,2013-03-29 09:50:00,
2013-03-29 05:56:00,24.5,23.3,30.32,WSW,256,0.0,0.0,95,0.00,,,0.00,0,Wunderground v.1.15,2013-03-29 09:56:00,
2013-03-29 06:01:00,24.4,23.2,30.32,WSW,256,0.0,0.0,95,0.00,,,0.00,0,Wunderground v.1.15,2013-03-29 10:01:00,
2013-03-29 06:06:00,24.2,23.0,30.32,WSW,256,0.0,0.0,95,0.00,,,0.00,0,Wunderground v.1.15,2013-03-29 10:06:00,
2013-03-29 06:11:00,24.3,23.1,30.32,WSW,256,0.0,0.0,95,0.00,,,0.00,0,Wunderground v.1.15,2013-03-29 10:11:00,
2013-03-29 06:17:00,24.3,23.1,30.32,WSW,256,0.0,0.0,95,0.00,,,0.00,0,Wunderground v.1.15,2013-03-29 10:17:00,
2013-03-29 06:22:00,24.2,23.0,30.32,WSW,256,0.0,0.0,95,0.00,,,0.00,0,Wunderground v.1.15,2013-03-29 10:22:00,
2013-03-29 06:27:00,24.2,23.0,30.32,WSW,256,0.0,0.0,95,0.00,,,0.00,0,Wunderground v.1.15,2013-03-29 10:27:00,
2013-03-29 06:32:00,24.2,23.0,30.32,WSW,256,0.0,0.0,95,0.00,,,0.00,0,Wunderground v.1.15,2013-03-29 10:32:00,
2013-03-29 06:37:00,24.1,22.9,30.32,WSW,256,0.0,0.0,95,0.00,,,0.00,0,Wunderground v.1.15,2013-03-29 10:37:00,
2013-03-29 06:42:00,24.2,23.2,30.32,WSW,256,0.0,0.0,96,0.00,,,0.00,0,Wunderground v.1.15,2013-03-29 10:42:00,
2013-03-29 06:47:00,24.0,22.8,30.32,WSW,256,0.0,0.0,95,0.00,,,0.00,0,Wunderground v.1.15,2013-03-29 10:47:00,
2013-03-29 06:52:00,23.9,22.7,30.32,WSW,256,0.0,0.0,95,0.00,,,0.00,0,Wunderground v.1.15,2013-03-29 10:52:00,
2013-03-29 06:57:00,23.7,22.5,30.32,WSW,256,0.0,0.0,95,0.00,,,0.00,0,Wunderground v.1.15,2013-03-29 10:57:00,
2013-03-29 07:02:00,23.6,22.4,30.32,WSW,256,0.0,0.0,95,0.00,,,0.00,0,Wunderground v.1.15,2013-03-29 11:02:00,
2013-03-29 07:07:00,23.8,22.8,30.32,WSW,256,0.0,1.0,96,0.00,,,0.00,0,Wunderground v.1.15,2013-03-29 11:07:00,
2013-03-29 07:12:00,23.8,22.8,30.32,WSW,256,0.0,0.0,96,0.00,,,0.00,0,Wunderground v.1.15,2013-03-29 11:12:00,
2013-03-29 07:17:00,23.7,22.5,30.33,WSW,256,0.0,0.0,95,0.00,,,0.00,0,Wunderground v.1.15,2013-03-29 11:17:00,
2013-03-29 07:22:00,23.3,22.1,30.33,WSW,256,0.0,0.0,95,0.00,,,0.00,0,Wunderground v.1.15,2013-03-29 11:22:00,
2013-03-29 07:27:00,23.2,22.0,30.33,WSW,256,0.0,0.0,95,0.00,,,0.00,5,Wunderground v.1.15,2013-03-29 11:27:00,
2013-03-29 07:32:00,23.4,22.2,30.33,WSW,256,0.0,0.0,95,0.00,,,0.00,7,Wunderground v.1.15,2013-03-29 11:32:00,
2013-03-29 07:37:00,23.3,22.1,30.33,WSW,256,0.0,0.0,95,0.00,,,0.00,11,Wunderground v.1.15,2013-03-29 11:37:00,
2013-03-29 07:42:00,23.5,22.5,30.33,WSW,256,0.0,0.0,96,0.00,,,0.00,12,Wunderground v.1.15,2013-03-29 11:42:00,
2013-03-29 07:47:00,23.8,22.8,30.33,WSW,256,0.0,0.0,96,0.00,,,0.00,16,Wunderground v.1.15,2013-03-29 11:47:00,
2013-03-29 07:52:00,23.8,22.8,30.33,WSW,256,0.0,0.0,96,0.00,,,0.00,23,Wunderground v.1.15,2013-03-29 11:52:00,
2013-03-29 07:57:00,23.9,22.9,30.33,WSW,256,0.0,0.0,96,0.00,,,0.00,35,Wunderground v.1.15,2013-03-29 11:57:00,
2013-03-29 08:02:00,24.4,23.4,30.34,WSW,256,0.0,0.0,96,0.00,,,0.00,42,Wunderground v.1.15,2013-03-29 12:02:00,
2013-03-29 08:07:00,24.6,23.6,30.34,WSW,256,0.0,0.0,96,0.00,,,0.00,65,Wunderground v.1.15,2013-03-29 12:07:00,
2013-03-29 08:12:00,25.4,24.4,30.34,WSW,256,0.0,0.0,96,0.00,,,0.00,88,Wunderground v.1.15,2013-03-29 12:12:00,
2013-03-29 08:17:00,25.9,24.9,30.33,WSW,256,0.0,0.0,96,0.00,,,0.00,113,Wunderground v.1.15,2013-03-29 12:17:00,
2013-03-29 08:22:00,26.3,25.3,30.33,WSW,256,0.0,0.0,96,0.00,,,0.00,130,Wunderground v.1.15,2013-03-29 12:22:00,
2013-03-29 08:27:00,26.8,25.8,30.33,WSW,256,0.0,0.0,96,0.00,,,0.00,134,Wunderground v.1.15,2013-03-29 12:27:00,
2013-03-29 08:32:00,27.6,26.6,30.33,WSW,256,0.0,0.0,96,0.00,,,0.00,149,Wunderground v.1.15,2013-03-29 12:32:00,
2013-03-29 08:37:00,28.1,27.1,30.33,WSW,256,0.0,0.0,96,0.00,,,0.00,167,Wunderground v.1.15,2013-03-29 12:37:00,
2013-03-29 08:42:00,28.5,27.5,30.33,WSW,256,0.0,0.0,96,0.00,,,0.00,186,Wunderground v.1.15,2013-03-29 12:42:00,
2013-03-29 08:47:00,29.3,28.3,30.33,WSW,256,0.0,0.0,96,0.00,,,0.00,206,Wunderground v.1.15,2013-03-29 12:47:00,
2013-03-29 08:52:00,29.9,28.9,30.33,WSW,256,0.0,0.0,96,0.00,,,0.00,218,Wunderground v.1.15,2013-03-29 12:52:00,
2013-03-29 08:57:00,30.6,29.3,30.33,WSW,256,0.0,0.0,95,0.00,,,0.00,227,Wunderground v.1.15,2013-03-29 12:57:00,
2013-03-29 09:03:00,31.5,30.2,30.34,WSW,256,0.0,0.0,95,0.00,,,0.00,251,Wunderground v.1.15,2013-03-29 13:03:00,
2013-03-29 09:08:00,32.1,30.8,30.34,WSW,256,0.0,0.0,95,0.00,,,0.00,267,Wunderground v.1.15,2013-03-29 13:08:00,
2013-03-29 09:13:00,33.1,31.6,30.34,WSW,256,0.0,0.0,94,0.00,,,0.00,287,Wunderground v.1.15,2013-03-29 13:13:00,
2013-03-29 09:18:00,33.5,31.4,30.34,WSW,256,0.0,0.0,92,0.00,,,0.00,311,Wunderground v.1.15,2013-03-29 13:18:00,
2013-03-29 09:23:00,34.2,31.8,30.33,WSW,256,0.0,1.0,91,0.00,,,0.00,325,Wunderground v.1.15,2013-03-29 13:23:00,
2013-03-29 09:28:00,34.7,31.8,30.34,WSW,256,0.0,1.0,89,0.00,,,0.00,343,Wunderground v.1.15,2013-03-29 13:28:00,
2013-03-29 09:33:00,35.3,31.8,30.34,WSW,256,0.0,2.0,87,0.00,,,0.00,362,Wunderground v.1.15,2013-03-29 13:33:00,
2013-03-29 09:38:00,36.5,33.0,30.34,WSW,256,2.0,3.0,87,0.00,,,0.00,390,Wunderground v.1.15,2013-03-29 13:38:00,
2013-03-29 09:43:00,37.1,33.0,30.34,WSW,256,1.0,3.0,85,0.00,,,0.00,422,Wunderground v.1.15,2013-03-29 13:43:00,
2013-03-29 09:48:00,38.1,34.0,30.34,WSW,256,0.0,3.0,85,0.00,,,0.00,429,Wunderground v.1.15,2013-03-29 13:48:00,
2013-03-29 09:53:00,38.8,34.1,30.34,WSW,256,0.0,3.0,83,0.00,,,0.00,464,Wunderground v.1.15,2013-03-29 13:53:00,
2013-03-29 09:59:00,39.5,33.8,30.34,WSW,256,3.0,4.0,80,0.00,,,0.00,429,Wunderground v.1.15,2013-03-29 13:59:00,
2013-03-29 10:04:00,39.6,32.7,30.34,WSW,256,3.0,5.0,76,0.00,,,0.00,461,Wunderground v.1.15,2013-03-29 14:04:00,
2013-03-29 10:09:00,39.6,31.3,30.34,SW,234,2.0,5.0,72,0.00,,,0.00,489,Wunderground v.1.15,2013-03-29 14:09:00,
2013-03-29 10:14:00,40.2,31.9,30.34,SW,234,3.0,6.0,72,0.00,,,0.00,533,Wunderground v.1.15,2013-03-29 14:14:00,
2013-03-29 10:19:00,41.1,33.4,30.34,SW,232,2.0,6.0,74,0.00,,,0.00,434,Wunderground v.1.15,2013-03-29 14:19:00,
2013-03-29 10:24:00,40.8,31.8,30.34,SW,229,3.0,5.0,70,0.00,,,0.00,482,Wunderground v.1.15,2013-03-29 14:24:00,
2013-03-29 10:29:00,41.1,33.1,30.34,SW,229,0.0,5.0,73,0.00,,,0.00,278,Wunderground v.1.15,2013-03-29 14:29:00,
2013-03-29 10:34:00,41.3,33.0,30.34,SW,229,4.0,4.0,72,0.00,,,0.00,302,Wunderground v.1.15,2013-03-29 14:34:00,
2013-03-29 10:39:00,41.5,32.1,30.34,SW,229,2.0,4.0,69,0.00,,,0.00,413,Wunderground v.1.15,2013-03-29 14:39:00,
2013-03-29 10:44:00,42.0,31.8,30.34,WSW,254,2.0,4.0,67,0.00,,,0.00,374,Wunderground v.1.15,2013-03-29 14:44:00,
2013-03-29 10:49:00,42.0,30.3,30.34,WSW,253,2.0,5.0,63,0.00,,,0.00,345,Wunderground v.1.15,2013-03-29 14:49:00,
2013-03-29 10:54:00,42.2,30.1,30.34,WSW,253,2.0,3.0,62,0.00,,,0.00,295,Wunderground v.1.15,2013-03-29 14:54:00,
2013-03-29 10:59:00,42.4,30.7,30.34,WSW,253,2.0,3.0,63,0.00,,,0.00,316,Wunderground v.1.15,2013-03-29 14:59:00,
2013-03-29 11:04:00,42.8,31.5,30.34,WSW,253,1.0,5.0,64,0.00,,,0.00,455,Wunderground v.1.15,2013-03-29 15:04:00,
2013-03-29 11:09:00,43.2,31.1,30.34,WSW,253,2.0,5.0,62,0.00,,,0.00,422,Wunderground v.1.15,2013-03-29 15:09:00,
2013-03-29 11:14:00,43.6,31.4,30.34,WSW,253,0.0,5.0,62,0.00,,,0.00,494,Wunderground v.1.15,2013-03-29 15:14:00,
2013-03-29 11:19:00,43.7,30.7,30.34,SW,221,4.0,6.0,60,0.00,,,0.00,533,Wunderground v.1.15,2013-03-29 15:19:00,
2013-03-29 11:24:00,43.8,31.6,30.34,WSW,252,6.0,7.0,62,0.00,,,0.00,555,Wunderground v.1.15,2013-03-29 15:24:00,
2013-03-29 11:29:00,43.9,32.1,30.34,West,272,1.0,7.0,63,0.00,,,0.00,499,Wunderground v.1.15,2013-03-29 15:29:00,
2013-03-29 11:34:00,44.5,32.3,30.34,West,267,1.0,4.0,62,0.00,,,0.00,457,Wunderground v.1.15,2013-03-29 15:34:00,
2013-03-29 11:39:00,44.7,32.1,30.34,WSW,254,0.0,5.0,61,0.00,,,0.00,540,Wunderground v.1.15,2013-03-29 15:39:00,
2013-03-29 11:44:00,45.2,32.5,30.34,West,270,2.0,3.0,61,0.00,,,0.00,522,Wunderground v.1.15,2013-03-29 15:44:00,
2013-03-29 11:49:00,45.2,31.7,30.34,West,273,1.0,10.0,59,0.00,,,0.00,480,Wunderground v.1.15,2013-03-29 15:49:00,
2013-03-29 11:54:00,45.3,31.8,30.34,WNW,282,3.0,8.0,59,0.00,,,0.00,476,Wunderground v.1.15,2013-03-29 15:54:00,
2013-03-29 11:59:00,45.6,32.1,30.34,WSW,256,3.0,8.0,59,0.00,,,0.00,461,Wunderground v.1.15,2013-03-29 15:59:00,
2013-03-29 12:04:00,45.7,32.2,30.34,WNW,289,3.0,7.0,59,0.00,,,0.00,455,Wunderground v.1.15,2013-03-29 16:04:00,
2013-03-29 12:09:00,45.5,32.0,30.33,WSW,251,3.0,10.0,59,0.00,,,0.00,476,Wunderground v.1.15,2013-03-29 16:09:00,
2013-03-29 12:14:00,45.9,31.9,30.34,WSW,251,6.0,8.0,58,0.00,,,0.00,480,Wunderground v.1.15,2013-03-29 16:14:00,
2013-03-29 12:20:00,45.8,31.9,30.33,WSW,244,8.0,8.0,58,0.00,,,0.00,492,Wunderground v.1.15,2013-03-29 16:20:00,
2013-03-29 12:25:00,46.7,32.3,30.33,WNW,294,2.0,8.0,57,0.00,,,0.00,612,Wunderground v.1.15,2013-03-29 16:25:00,
2013-03-29 12:30:00,46.7,30.9,30.33,SW,236,0.0,2.0,54,0.00,,,0.00,624,Wunderground v.1.15,2013-03-29 16:30:00,
2013-03-29 12:35:00,46.8,32.4,30.33,SSE,147,2.0,7.0,57,0.00,,,0.00,538,Wunderground v.1.15,2013-03-29 16:35:00,
2013-03-29 12:40:00,47.7,31.9,30.32,West,269,2.0,3.0,54,0.00,,,0.00,596,Wunderground v.1.15,2013-03-29 16:40:00,
2013-03-29 12:45:00,47.7,32.3,30.32,WSW,257,5.0,9.0,55,0.00,,,0.00,844,Wunderground v.1.15,2013-03-29 16:45:00,
2013-03-29 12:50:00,47.3,33.3,30.32,West,281,5.0,5.0,58,0.00,,,0.00,584,Wunderground v.1.15,2013-03-29 16:50:00,
2013-03-29 12:55:00,48.3,33.3,30.32,West,277,2.0,5.0,56,0.00,,,0.00,826,Wunderground v.1.15,2013-03-29 16:55:00,
2013-03-29 13:00:00,48.1,32.7,30.32,WSW,258,5.0,7.0,55,0.00,,,0.00,879,Wunderground v.1.15,2013-03-29 17:00:00,
2013-03-29 13:05:00,48.3,33.3,30.31,WSW,257,5.0,9.0,56,0.00,,,0.00,921,Wunderground v.1.15,2013-03-29 17:05:00,
2013-03-29 13:10:00,48.1,33.1,30.31,West,259,1.0,5.0,56,0.00,,,0.00,664,Wunderground v.1.15,2013-03-29 17:10:00,
2013-03-29 13:15:00,48.0,32.1,30.31,West,259,1.0,5.0,54,0.00,,,0.00,601,Wunderground v.1.15,2013-03-29 17:15:00,
2013-03-29 13:20:00,48.8,32.4,30.30,NNE,25,1.0,5.0,53,0.00,,,0.00,1095,Wunderground v.1.15,2013-03-29 17:20:00,
2013-03-29 13:25:00,49.6,31.2,30.30,WSW,252,6.0,11.0,49,0.00,,,0.00,731,Wunderground v.1.15,2013-03-29 17:25:00,
2013-03-29 13:30:00,49.6,31.2,30.30,West,279,1.0,7.0,49,0.00,,,0.00,673,Wunderground v.1.15,2013-03-29 17:30:00,
2013-03-29 13:35:00,49.5,31.6,30.30,WSW,256,5.0,7.0,50,0.00,,,0.00,984,Wunderground v.1.15,2013-03-29 17:35:00,
2013-03-29 13:40:00,49.4,31.0,30.30,WSW,254,2.0,3.0,49,0.00,,,0.00,911,Wunderground v.1.15,2013-03-29 17:40:00,
2013-03-29 13:46:00,50.2,33.7,30.29,WNW,289,2.0,4.0,53,0.00,,,0.00,976,Wunderground v.1.15,2013-03-29 17:46:00,
2013-03-29 13:51:00,50.7,32.2,30.29,WSW,241,3.0,6.0,49,0.00,,,0.00,898,Wunderground v.1.15,2013-03-29 17:51:00,
2013-03-29 13:56:00,50.5,31.5,30.29,WSW,252,4.0,10.0,48,0.00,,,0.00,882,Wunderground v.1.15,2013-03-29 17:56:00,
2013-03-29 14:01:00,50.9,31.9,30.29,NNW,337,3.0,4.0,48,0.00,,,0.00,881,Wunderground v.1.15,2013-03-29 18:01:00,
2013-03-29 14:06:00,51.3,33.8,30.28,NE,36,0.0,5.0,51,0.00,,,0.00,877,Wunderground v.1.15,2013-03-29 18:06:00,
2013-03-29 14:11:00,51.5,31.9,30.28,West,281,4.0,9.0,47,0.00,,,0.00,875,Wunderground v.1.15,2013-03-29 18:11:00,
2013-03-29 14:16:00,50.0,30.0,30.28,WSW,238,1.0,9.0,46,0.00,,,0.00,882,Wunderground v.1.15,2013-03-29 18:16:00,
2013-03-29 14:21:00,50.8,31.3,30.28,WSW,238,1.0,4.0,47,0.00,,,0.00,882,Wunderground v.1.15,2013-03-29 18:21:00,
2013-03-29 14:26:00,51.2,31.1,30.28,WNW,284,0.0,4.0,46,0.00,,,0.00,879,Wunderground v.1.15,2013-03-29 18:26:00,
2013-03-29 14:31:00,52.0,31.8,30.28,WSW,254,7.0,10.0,46,0.00,,,0.00,879,Wunderground v.1.15,2013-03-29 18:31:00,
2013-03-29 14:36:00,51.8,31.1,30.27,West,272,0.0,10.0,45,0.00,,,0.00,870,Wunderground v.1.15,2013-03-29 18:36:00,
2013-03-29 14:41:00,51.9,32.3,30.27,WSW,244,4.0,6.0,47,0.00,,,0.00,860,Wunderground v.1.15,2013-03-29 18:41:00,
2013-03-29 14:46:00,51.8,31.1,30.27,WSW,258,3.0,8.0,45,0.00,,,0.00,849,Wunderground v.1.15,2013-03-29 18:46:00,
2013-03-29 14:51:00,51.4,30.7,30.27,NNE,32,5.0,5.0,45,0.00,,,0.00,833,Wunderground v.1.15,2013-03-29 18:51:00,
2013-03-29 14:57:00,52.1,33.5,30.26,WSW,248,5.0,12.0,49,0.00,,,0.00,835,Wunderground v.1.15,2013-03-29 18:57:00,
2013-03-29 15:02:00,51.8,30.6,30.26,WNW,285,0.0,3.0,44,0.00,,,0.00,828,Wunderground v.1.15,2013-03-29 19:02:00,
2013-03-29 15:07:00,51.7,31.0,30.26,WSW,247,1.0,4.0,45,0.00,,,0.00,823,Wunderground v.1.15,2013-03-29 19:07:00,
2013-03-29 15:12:00,52.5,33.4,30.26,WSW,250,6.0,8.0,48,0.00,,,0.00,837,Wunderground v.1.15,2013-03-29 19:12:00,
2013-03-29 15:17:00,52.8,32.0,30.26,WSW,252,2.0,8.0,45,0.00,,,0.00,861,Wunderground v.1.15,2013-03-29 19:17:00,
2013-03-29 15:22:00,53.3,30.8,30.25,NNE,17,0.0,3.0,42,0.00,,,0.00,877,Wunderground v.1.15,2013-03-29 19:22:00,
2013-03-29 15:27:00,53.2,32.4,30.25,SW,216,6.0,6.0,45,0.00,,,0.00,819,Wunderground v.1.15,2013-03-29 19:27:00,
2013-03-29 15:32:00,53.1,33.4,30.25,WSW,243,1.0,3.0,47,0.00,,,0.00,197,Wunderground v.1.15,2013-03-29 19:32:00,
2013-03-29 15:37:00,52.3,31.0,30.25,NW,313,5.0,7.0,44,0.00,,,0.00,193,Wunderground v.1.15,2013-03-29 19:37:00,
2013-03-29 15:42:00,51.3,30.7,30.25,NW,323,1.0,3.0,45,0.00,,,0.00,265,Wunderground v.1.15,2013-03-29 19:42:00,
2013-03-29 15:47:00,51.9,31.2,30.25,WNW,300,0.0,3.0,45,0.00,,,0.00,367,Wunderground v.1.15,2013-03-29 19:47:00,
2013-03-29 15:52:00,53.1,33.4,30.25,WSW,244,2.0,8.0,47,0.00,,,0.00,884,Wunderground v.1.15,2013-03-29 19:52:00,
2013-03-29 15:57:00,53.6,33.3,30.25,WSW,253,9.0,9.0,46,0.00,,,0.00,874,Wunderground v.1.15,2013-03-29 19:57:00,
2013-03-29 16:02:00,52.5,32.3,30.24,West,260,6.0,10.0,46,0.00,,,0.00,230,Wunderground v.1.15,2013-03-29 20:02:00,
2013-03-29 16:07:00,51.9,31.7,30.24,West,263,6.0,10.0,46,0.00,,,0.00,258,Wunderground v.1.15,2013-03-29 20:07:00,
2013-03-29 16:12:00,53.3,31.9,30.24,WNW,294,0.0,4.0,44,0.00,,,0.00,747,Wunderground v.1.15,2013-03-29 20:12:00,
2013-03-29 16:17:00,53.7,33.4,30.24,West,265,4.0,12.0,46,0.00,,,0.00,770,Wunderground v.1.15,2013-03-29 20:17:00,
2013-03-29 16:22:00,53.4,30.9,30.24,WNW,291,1.0,5.0,42,0.00,,,0.00,225,Wunderground v.1.15,2013-03-29 20:22:00,
2013-03-29 16:27:00,52.4,31.1,30.24,WNW,284,0.0,5.0,44,0.00,,,0.00,276,Wunderground v.1.15,2013-03-29 20:27:00,
2013-03-29 16:32:00,52.8,32.0,30.24,West,280,3.0,7.0,45,0.00,,,0.00,747,Wunderground v.1.15,2013-03-29 20:32:00,
2013-03-29 16:38:00,53.0,32.2,30.24,WNW,300,1.0,7.0,45,0.00,,,0.00,262,Wunderground v.1.15,2013-03-29 20:38:00,
2013-03-29 16:43:00,52.0,31.8,30.24,WSW,255,3.0,3.0,46,0.00,,,0.00,239,Wunderground v.1.15,2013-03-29 20:43:00,
2013-03-29 16:48:00,53.1,33.4,30.23,West,262,4.0,8.0,47,0.00,,,0.00,733,Wunderground v.1.15,2013-03-29 20:48:00,
2013-03-29 16:53:00,54.1,33.2,30.23,WSW,252,10.0,11.0,45,0.00,,,0.00,619,Wunderground v.1.15,2013-03-29 20:53:00,
2013-03-29 16:58:00,53.1,32.3,30.23,West,261,0.0,11.0,45,0.00,,,0.00,418,Wunderground v.1.15,2013-03-29 20:58:00,
2013-03-29 17:03:00,53.1,32.3,30.23,WSW,246,1.0,8.0,45,0.00,,,0.00,663,Wunderground v.1.15,2013-03-29 21:03:00,
2013-03-29 17:08:00,53.4,32.6,30.23,WSW,256,9.0,13.0,45,0.00,,,0.00,241,Wunderground v.1.15,2013-03-29 21:08:00,
2013-03-29 17:13:00,53.0,32.2,30.23,WSW,248,9.0,13.0,45,0.00,,,0.00,255,Wunderground v.1.15,2013-03-29 21:13:00,
2013-03-29 17:19:00,53.0,32.2,30.23,WSW,254,12.0,13.0,45,0.00,,,0.00,327,Wunderground v.1.15,2013-03-29 21:19:00,
2013-03-29 17:24:00,52.3,32.1,30.23,West,269,6.0,10.0,46,0.00,,,0.00,176,Wunderground v.1.15,2013-03-29 21:24:00,
2013-03-29 17:29:00,51.9,32.3,30.23,WSW,257,1.0,10.0,47,0.00,,,0.00,167,Wunderground v.1.15,2013-03-29 21:29:00,
2013-03-29 17:34:00,52.5,32.8,30.23,West,262,7.0,8.0,47,0.00,,,0.00,408,Wunderground v.1.15,2013-03-29 21:34:00,
2013-03-29 17:39:00,52.1,31.4,30.22,SSW,198,1.0,8.0,45,0.00,,,0.00,100,Wunderground v.1.15,2013-03-29 21:39:00,
2013-03-29 17:44:00,51.5,30.8,30.22,SW,232,3.0,6.0,45,0.00,,,0.00,93,Wunderground v.1.15,2013-03-29 21:44:00,
2013-03-29 17:49:00,51.3,31.7,30.22,SW,232,2.0,6.0,47,0.00,,,0.00,79,Wunderground v.1.15,2013-03-29 21:49:00,
2013-03-29 17:54:00,51.4,31.3,30.22,SW,232,0.0,3.0,46,0.00,,,0.00,67,Wunderground v.1.15,2013-03-29 21:54:00,
2013-03-29 17:59:00,51.5,30.8,30.22,SW,232,0.0,3.0,45,0.00,,,0.00,76,Wunderground v.1.15,2013-03-29 21:59:00,
2013-03-29 18:04:00,51.5,31.4,30.22,SW,232,2.0,3.0,46,0.00,,,0.00,90,Wunderground v.1.15,2013-03-29 22:04:00,
2013-03-29 18:09:00,51.5,31.9,30.22,SW,232,1.0,3.0,47,0.00,,,0.00,90,Wunderground v.1.15,2013-03-29 22:09:00,
2013-03-29 18:14:00,51.4,31.8,30.22,SW,232,1.0,3.0,47,0.00,,,0.00,79,Wunderground v.1.15,2013-03-29 22:14:00,
2013-03-29 18:19:00,51.3,32.3,30.22,SW,232,1.0,3.0,48,0.00,,,0.00,74,Wunderground v.1.15,2013-03-29 22:19:00,
2013-03-29 18:24:00,51.3,31.7,30.22,SW,232,0.0,2.0,47,0.00,,,0.00,60,Wunderground v.1.15,2013-03-29 22:24:00,
2013-03-29 18:29:00,51.3,31.7,30.22,SW,232,0.0,2.0,47,0.00,,,0.00,53,Wunderground v.1.15,2013-03-29 22:29:00,
2013-03-29 18:34:00,51.1,33.1,30.22,West,263,1.0,4.0,50,0.00,,,0.00,53,Wunderground v.1.15,2013-03-29 22:34:00,
2013-03-29 18:39:00,51.1,32.1,30.22,West,263,3.0,4.0,48,0.00,,,0.00,54,Wunderground v.1.15,2013-03-29 22:39:00,
2013-03-29 18:44:00,51.0,33.0,30.22,West,261,1.0,6.0,50,0.00,,,0.00,53,Wunderground v.1.15,2013-03-29 22:44:00,
2013-03-29 18:49:00,51.0,32.0,30.22,West,261,0.0,6.0,48,0.00,,,0.00,56,Wunderground v.1.15,2013-03-29 22:49:00,
2013-03-29 18:54:00,50.9,33.4,30.23,West,261,1.0,1.0,51,0.00,,,0.00,53,Wunderground v.1.15,2013-03-29 22:54:00,
2013-03-29 18:59:00,50.7,32.2,30.22,West,261,0.0,2.0,49,0.00,,,0.00,47,Wunderground v.1.15,2013-03-29 22:59:00,
2013-03-29 19:04:00,50.7,32.7,30.23,West,261,0.0,1.0,50,0.00,,,0.00,42,Wunderground v.1.15,2013-03-29 23:04:00,
2013-03-29 19:09:00,50.6,33.1,30.23,West,261,0.0,2.0,51,0.00,,,0.00,32,Wunderground v.1.15,2013-03-29 23:09:00,
2013-03-29 19:14:00,50.3,32.8,30.23,West,261,0.0,1.0,51,0.00,,,0.00,25,Wunderground v.1.15,2013-03-29 23:14:00,
2013-03-29 19:19:00,50.2,34.2,30.23,West,261,0.0,1.0,54,0.00,,,0.00,19,Wunderground v.1.15,2013-03-29 23:19:00,
2013-03-29 19:24:00,49.9,33.4,30.23,West,261,0.0,1.0,53,0.00,,,0.00,19,Wunderground v.1.15,2013-03-29 23:24:00,
2013-03-29 19:29:00,49.8,32.9,30.23,West,261,0.0,1.0,52,0.00,,,0.00,14,Wunderground v.1.15,2013-03-29 23:29:00,
2013-03-29 19:34:00,49.7,33.2,30.23,West,261,0.0,0.0,53,0.00,,,0.00,12,Wunderground v.1.15,2013-03-29 23:34:00,
2013-03-29 19:39:00,49.4,33.4,30.23,West,261,0.0,0.0,54,0.00,,,0.00,11,Wunderground v.1.15,2013-03-29 23:39:00,
2013-03-29 19:45:00,49.2,32.8,30.23,West,261,0.0,0.0,53,0.00,,,0.00,7,Wunderground v.1.15,2013-03-29 23:45:00,
2013-03-29 19:50:00,48.8,34.2,30.23,West,261,0.0,0.0,57,0.00,,,0.00,5,Wunderground v.1.15,2013-03-29 23:50:00,
2013-03-29 19:55:00,48.1,34.0,30.23,West,261,0.0,0.0,58,0.00,,,0.00,0,Wunderground v.1.15,2013-03-29 23:55:00,
2013-03-29 20:00:00,47.8,33.7,30.23,West,261,0.0,0.0,58,0.00,,,0.00,0,Wunderground v.1.15,2013-03-30 00:00:00,
2013-03-29 20:05:00,47.4,34.2,30.23,West,261,0.0,0.0,60,0.00,,,0.00,0,Wunderground v.1.15,2013-03-30 00:05:00,
2013-03-29 20:10:00,46.8,33.2,30.23,West,261,0.0,0.0,59,0.00,,,0.00,0,Wunderground v.1.15,2013-03-30 00:10:00,
2013-03-29 20:15:00,46.5,33.4,30.23,West,261,0.0,0.0,60,0.00,,,0.00,0,Wunderground v.1.15,2013-03-30 00:15:00,
2013-03-29 20:20:00,46.4,33.7,30.23,West,261,0.0,0.0,61,0.00,,,0.00,0,Wunderground v.1.15,2013-03-30 00:20:00,
2013-03-29 20:25:00,46.1,33.4,30.23,West,261,0.0,0.0,61,0.00,,,0.00,0,Wunderground v.1.15,2013-03-30 00:25:00,
2013-03-29 20:30:00,45.8,33.9,30.23,West,261,0.0,0.0,63,0.00,,,0.00,0,Wunderground v.1.15,2013-03-30 00:30:00,
2013-03-29 20:35:00,45.3,34.2,30.23,West,261,0.0,0.0,65,0.00,,,0.00,0,Wunderground v.1.15,2013-03-30 00:35:00,
2013-03-29 20:40:00,45.1,34.0,30.23,West,261,0.0,0.0,65,0.00,,,0.00,0,Wunderground v.1.15,2013-03-30 00:40:00,
2013-03-29 20:45:00,44.8,34.1,30.23,West,261,0.0,0.0,66,0.00,,,0.00,0,Wunderground v.1.15,2013-03-30 00:45:00,
2013-03-29 20:50:00,44.5,33.5,30.23,West,261,0.0,0.0,65,0.00,,,0.00,0,Wunderground v.1.15,2013-03-30 00:50:00,
2013-03-29 20:55:00,44.3,32.9,30.23,West,261,0.0,0.0,64,0.00,,,0.00,0,Wunderground v.1.15,2013-03-30 00:55:00,
2013-03-29 21:00:00,44.1,32.7,30.23,West,261,0.0,0.0,64,0.00,,,0.00,0,Wunderground v.1.15,2013-03-30 01:00:00,
2013-03-29 21:05:00,43.8,32.8,30.24,West,261,0.0,0.0,65,0.00,,,0.00,0,Wunderground v.1.15,2013-03-30 01:05:00,
2013-03-29 21:10:00,43.3,33.1,30.24,West,261,0.0,0.0,67,0.00,,,0.00,0,Wunderground v.1.15,2013-03-30 01:10:00,
2013-03-29 21:15:00,42.4,33.7,30.24,West,261,0.0,0.0,71,0.00,,,0.00,0,Wunderground v.1.15,2013-03-30 01:15:00,
2013-03-29 21:20:00,41.8,33.1,30.24,West,261,0.0,0.0,71,0.00,,,0.00,0,Wunderground v.1.15,2013-03-30 01:20:00,
2013-03-29 21:25:00,41.7,33.3,30.24,West,261,0.0,0.0,72,0.00,,,0.00,0,Wunderground v.1.15,2013-03-30 01:25:00,
2013-03-29 21:30:00,41.9,32.8,30.24,West,261,0.0,0.0,70,0.00,,,0.00,0,Wunderground v.1.15,2013-03-30 01:30:00,
2013-03-29 21:35:00,42.7,33.2,30.24,West,261,0.0,0.0,69,0.00,,,0.00,0,Wunderground v.1.15,2013-03-30 01:35:00,
2013-03-29 21:40:00,43.3,33.4,30.25,West,261,1.0,2.0,68,0.00,,,0.00,0,Wunderground v.1.15,2013-03-30 01:40:00,
2013-03-29 21:45:00,43.7,34.2,30.25,West,261,0.0,2.0,69,0.00,,,0.00,0,Wunderground v.1.15,2013-03-30 01:45:00,
2013-03-29 21:50:00,44.0,34.1,30.25,West,261,2.0,3.0,68,0.00,,,0.00,0,Wunderground v.1.15,2013-03-30 01:50:00,
2013-03-29 21:55:00,44.1,34.2,30.25,West,261,1.0,3.0,68,0.00,,,0.00,0,Wunderground v.1.15,2013-03-30 01:55:00,
2013-03-29 22:00:00,44.0,34.1,30.25,West,261,2.0,3.0,68,0.00,,,0.00,0,Wunderground v.1.15,2013-03-30 02:00:00,
2013-03-29 22:05:00,43.8,33.9,30.25,West,261,0.0,3.0,68,0.00,,,0.00,0,Wunderground v.1.15,2013-03-30 02:05:00,
2013-03-29 22:10:00,43.5,34.0,30.25,West,261,2.0,3.0,69,0.00,,,0.00,0,Wunderground v.1.15,2013-03-30 02:10:00,
2013-03-29 22:16:00,43.4,33.9,30.25,West,261,2.0,3.0,69,0.00,,,0.00,0,Wunderground v.1.15,2013-03-30 02:16:00,
2013-03-29 22:21:00,43.0,33.5,30.25,West,261,0.0,1.0,69,0.00,,,0.00,0,Wunderground v.1.15,2013-03-30 02:21:00,
2013-03-29 22:26:00,42.6,33.9,30.25,West,261,0.0,2.0,71,0.00,,,0.00,0,Wunderground v.1.15,2013-03-30 02:26:00,
2013-03-29 22:31:00,42.3,33.9,30.26,West,261,0.0,0.0,72,0.00,,,0.00,0,Wunderground v.1.15,2013-03-30 02:31:00,
2013-03-29 22:36:00,41.9,33.5,30.26,West,261,0.0,0.0,72,0.00,,,0.00,0,Wunderground v.1.15,2013-03-30 02:36:00,
2013-03-29 22:41:00,41.7,34.0,30.25,West,261,0.0,0.0,74,0.00,,,0.00,0,Wunderground v.1.15,2013-03-30 02:41:00,
2013-03-29 22:46:00,41.6,33.9,30.26,West,261,0.0,0.0,74,0.00,,,0.00,0,Wunderground v.1.15,2013-03-30 02:46:00,
2013-03-29 22:51:00,41.4,33.4,30.26,West,261,0.0,0.0,73,0.00,,,0.00,0,Wunderground v.1.15,2013-03-30 02:51:00,
2013-03-29 22:56:00,41.3,33.3,30.26,West,261,0.0,0.0,73,0.00,,,0.00,0,Wunderground v.1.15,2013-03-30 02:56:00,
2013-03-29 23:01:00,41.2,33.2,30.26,West,261,0.0,0.0,73,0.00,,,0.00,0,Wunderground v.1.15,2013-03-30 03:01:00,
2013-03-29 23:06:00,41.3,33.0,30.26,West,261,0.0,0.0,72,0.00,,,0.00,0,Wunderground v.1.15,2013-03-30 03:06:00,
2013-03-29 23:12:00,41.1,32.8,30.25,West,261,0.0,0.0,72,0.00,,,0.00,0,Wunderground v.1.15,2013-03-30 03:12:00,
2013-03-29 23:17:00,40.7,32.7,30.26,West,261,0.0,0.0,73,0.00,,,0.00,0,Wunderground v.1.15,2013-03-30 03:17:00,
2013-03-29 23:22:00,40.3,32.3,30.26,West,261,0.0,0.0,73,0.00,,,0.00,0,Wunderground v.1.15,2013-03-30 03:22:00,
2013-03-29 23:27:00,39.9,32.3,30.26,West,261,0.0,0.0,74,0.00,,,0.00,0,Wunderground v.1.15,2013-03-30 03:27:00,
2013-03-29 23:32:00,39.4,32.1,30.26,West,261,0.0,0.0,75,0.00,,,0.00,0,Wunderground v.1.15,2013-03-30 03:32:00,
2013-03-29 23:37:00,38.8,32.2,30.26,West,261,0.0,0.0,77,0.00,,,0.00,0,Wunderground v.1.15,2013-03-30 03:37:00,
2013-03-29 23:42:00,38.5,32.2,30.25,West,261,0.0,0.0,78,0.00,,,0.00,0,Wunderground v.1.15,2013-03-30 03:42:00,
2013-03-29 23:47:00,38.4,32.1,30.25,West,261,0.0,0.0,78,0.00,,,0.00,0,Wunderground v.1.15,2013-03-30 03:47:00,
2013-03-29 23:52:00,38.5,31.9,30.25,West,261,0.0,0.0,77,0.00,,,0.00,0,Wunderground v.1.15,2013-03-30 03:52:00,
2013-03-29 23:57:00,38.4,32.1,30.25,West,261,0.0,0.0,78,0.00,,,0.00,0,Wunderground v.1.15,2013-03-30 03:57:00,